createdAt,value
2019-02-22T00:00:37.433Z,94.80
2019-02-22T00:03:08.268Z,94.70
2019-02-22T00:05:37.204Z,95.30
2019-02-22T00:08:07.074Z,95.90
2019-02-22T00:10:37.558Z,95.50
2019-02-22T00:13:06.759Z,95.80
2019-02-22T00:15:37.633Z,96.30
2019-02-22T00:18:06.990Z,96.00
2019-02-22T00:20:35.733Z,96.00
2019-02-22T00:23:04.669Z,95.50
2019-02-22T00:25:33.819Z,95.10
2019-02-22T00:28:04.607Z,95.40
2019-02-22T00:30:33.991Z,95.00
2019-02-22T00:33:03.129Z,94.60
2019-02-22T00:35:32.961Z,95.00
2019-02-22T00:38:02.065Z,94.80
2019-02-22T00:40:32.874Z,94.70
2019-02-22T00:43:02.202Z,95.10
2019-02-22T00:45:31.806Z,95.70
2019-02-22T00:48:02.223Z,95.50
2019-02-22T00:50:32.394Z,94.00
2019-02-22T00:53:01.416Z,94.30
2019-02-22T00:56:05.846Z,95.90
2019-02-22T00:58:34.901Z,96.30
2019-02-22T01:01:05.289Z,95.90
2019-02-22T01:03:33.931Z,96.20
2019-02-22T01:06:02.931Z,96.60
2019-02-22T01:08:31.944Z,96.90
2019-02-22T01:11:02.081Z,97.40
2019-02-22T01:13:30.744Z,97.80
2019-02-22T01:16:00.277Z,97.30
2019-02-22T01:18:30.847Z,95.20
2019-02-22T01:21:01.255Z,94.10
2019-02-22T01:23:32.400Z,94.30
2019-02-22T01:26:01.741Z,94.40
2019-02-22T01:28:31.099Z,95.40
2019-02-22T01:31:00.165Z,96.00
2019-02-22T01:33:29.055Z,95.70
2019-02-22T01:35:58.341Z,95.40
2019-02-22T01:38:27.858Z,96.00
2019-02-22T01:40:56.680Z,96.70
2019-02-22T01:43:26.393Z,97.10
2019-02-22T01:45:56.766Z,96.90
2019-02-22T01:48:25.237Z,97.10
2019-02-22T01:50:53.644Z,94.70
2019-02-22T01:53:23.395Z,94.20
2019-02-22T01:55:52.627Z,95.50
2019-02-22T01:58:21.862Z,95.20
2019-02-22T02:00:51.280Z,95.20
2019-02-22T02:03:19.884Z,97.10
2019-02-22T02:05:48.860Z,99.90
2019-02-22T02:08:17.936Z,99.90
2019-02-22T02:10:53.917Z,99.90
2019-02-22T02:13:16.954Z,99.90
2019-02-22T02:15:45.512Z,99.90
2019-02-22T02:18:14.821Z,99.90
2019-02-22T02:20:54.050Z,99.90
2019-02-22T02:23:24.036Z,99.90
2019-02-22T02:25:52.839Z,99.90
2019-02-22T02:28:21.519Z,96.60
2019-02-22T02:30:50.861Z,89.90
2019-02-22T02:33:19.493Z,92.10
2019-02-22T02:35:48.001Z,94.30
2019-02-22T02:38:16.638Z,96.70
2019-02-22T02:40:46.440Z,97.60
2019-02-22T02:43:16.842Z,99.90
2019-02-22T02:45:47.320Z,99.90
2019-02-22T02:48:18.517Z,99.90
2019-02-22T02:50:48.860Z,99.90
2019-02-22T02:53:19.651Z,99.90
2019-02-22T02:55:49.022Z,99.10
2019-02-22T02:58:20.005Z,99.20
2019-02-22T03:00:50.811Z,99.40
2019-02-22T03:03:21.450Z,99.80
2019-02-22T03:06:15.353Z,99.90
2019-02-22T03:08:45.203Z,99.90
2019-02-22T03:11:20.656Z,99.70
2019-02-22T03:13:45.462Z,98.30
2019-02-22T03:16:15.862Z,98.60
2019-02-22T03:18:45.862Z,99.60
2019-02-22T03:21:17.088Z,99.40
2019-02-22T03:23:47.115Z,99.90
2019-02-22T03:26:16.658Z,99.90
2019-02-22T03:28:46.494Z,99.90
2019-02-22T03:31:18.178Z,99.90
2019-02-22T03:33:47.997Z,99.90
2019-02-22T03:36:18.318Z,99.90
2019-02-22T03:38:47.494Z,99.90
2019-02-22T03:41:19.673Z,99.90
2019-02-22T03:43:50.900Z,99.90
2019-02-22T03:46:21.954Z,99.80
2019-02-22T03:48:50.926Z,99.80
2019-02-22T03:51:20.453Z,99.90
2019-02-22T03:53:57.589Z,99.90
2019-02-22T03:56:29.203Z,99.90
2019-02-22T03:58:58.276Z,99.90
2019-02-22T04:01:28.181Z,99.90
2019-02-22T04:03:57.849Z,99.90
2019-02-22T04:06:27.482Z,99.90
2019-02-22T04:08:57.654Z,99.90
2019-02-22T04:11:29.679Z,99.90
2019-02-22T04:14:00.267Z,99.90
2019-02-22T04:16:30.662Z,99.90
2019-02-22T04:18:59.646Z,99.90
2019-02-22T04:21:29.023Z,99.90
2019-02-22T04:23:58.287Z,99.90
2019-02-22T04:26:28.053Z,99.90
2019-02-22T04:28:59.511Z,99.90
2019-02-22T04:31:28.911Z,92.80
2019-02-22T04:33:59.251Z,91.30
2019-02-22T04:36:29.135Z,94.90
2019-02-22T04:39:02.379Z,99.90
2019-02-22T04:41:33.546Z,99.90
2019-02-22T04:44:04.147Z,99.90
2019-02-22T04:46:33.548Z,99.90
2019-02-22T04:49:03.359Z,99.90
2019-02-22T04:51:33.909Z,99.90
2019-02-22T04:54:03.139Z,99.90
2019-02-22T04:56:31.709Z,99.90
2019-02-22T04:59:01.415Z,99.90
2019-02-22T05:01:30.644Z,99.50
2019-02-22T05:04:00.626Z,99.90
2019-02-22T05:06:30.041Z,99.90
2019-02-22T05:08:59.885Z,99.90
2019-02-22T05:11:29.554Z,99.90
2019-02-22T05:14:00.069Z,99.90
2019-02-22T05:16:30.311Z,99.30
2019-02-22T05:18:59.722Z,91.60
2019-02-22T05:21:30.814Z,93.80
2019-02-22T05:24:01.181Z,95.70
2019-02-22T05:26:32.006Z,98.10
2019-02-22T05:29:02.271Z,98.70
2019-02-22T05:31:31.674Z,99.60
2019-02-22T05:34:02.117Z,99.90
2019-02-22T05:36:33.061Z,99.90
2019-02-22T05:39:04.125Z,99.90
2019-02-22T05:41:34.103Z,99.90
2019-02-22T05:44:04.246Z,99.90
2019-02-22T05:46:33.670Z,99.90
2019-02-22T05:49:02.926Z,99.90
2019-02-22T05:51:33.891Z,99.90
2019-02-22T05:54:03.350Z,99.90
2019-02-22T05:56:33.734Z,99.90
2019-02-22T05:59:03.305Z,99.90
2019-02-22T06:01:32.881Z,99.90
2019-02-22T06:04:02.194Z,99.90
2019-02-22T06:06:32.086Z,99.90
2019-02-22T06:09:04.345Z,99.90
2019-02-22T06:11:37.366Z,99.90
2019-02-22T06:14:07.271Z,99.90
2019-02-22T06:16:45.106Z,99.90
2019-02-22T06:19:16.700Z,99.90
2019-02-22T06:21:48.731Z,99.90
2019-02-22T06:24:18.884Z,99.90
2019-02-22T06:26:48.434Z,99.90
2019-02-22T06:29:19.595Z,99.90
2019-02-22T06:31:50.984Z,99.90
2019-02-22T06:34:21.343Z,99.90
2019-02-22T06:37:01.687Z,99.90
2019-02-22T06:39:26.119Z,99.40
2019-02-22T06:41:56.090Z,98.90
2019-02-22T06:44:26.065Z,99.20
2019-02-22T06:46:55.430Z,98.60
2019-02-22T06:49:25.896Z,95.30
2019-02-22T06:51:55.674Z,92.00
2019-02-22T06:54:24.661Z,97.30
2019-02-22T06:56:55.379Z,95.10
2019-02-22T06:59:24.826Z,96.50
2019-02-22T07:01:55.056Z,95.30
2019-02-22T07:04:24.052Z,96.80
2019-02-22T07:06:53.727Z,96.90
2019-02-22T07:09:24.367Z,97.30
2019-02-22T07:12:04.731Z,99.00
2019-02-22T07:14:34.423Z,97.90
2019-02-22T07:17:04.809Z,99.00
2019-02-22T07:19:36.018Z,98.20
2019-02-22T07:22:06.642Z,97.30
2019-02-22T07:24:36.160Z,96.40
2019-02-22T07:27:06.297Z,95.50
2019-02-22T07:29:35.079Z,94.80
2019-02-22T07:32:06.125Z,93.80
2019-02-22T07:34:35.514Z,93.80
2019-02-22T07:37:05.244Z,91.60
2019-02-22T07:39:35.859Z,90.90
2019-02-22T07:42:04.848Z,90.00
2019-02-22T07:44:34.266Z,88.10
2019-02-22T07:47:04.741Z,84.90
2019-02-22T07:49:34.527Z,85.60
2019-02-22T07:52:04.964Z,84.10
2019-02-22T07:54:34.864Z,82.20
2019-02-22T07:57:05.154Z,78.30
2019-02-22T07:59:35.555Z,75.90
2019-02-22T08:02:07.094Z,72.90
2019-02-22T08:04:37.259Z,71.60
2019-02-22T08:07:06.206Z,71.40
2019-02-22T08:09:35.606Z,69.20
2019-02-22T08:12:05.484Z,68.20
2019-02-22T08:14:36.449Z,66.90
2019-02-22T08:17:06.405Z,65.20
2019-02-22T08:19:36.541Z,63.50
2019-02-22T08:22:06.965Z,62.00
2019-02-22T08:24:37.776Z,63.50
2019-02-22T08:27:09.349Z,63.50
2019-02-22T08:29:39.740Z,63.00
2019-02-22T08:32:09.814Z,62.80
2019-02-22T08:34:40.609Z,60.40
2019-02-22T08:37:10.406Z,57.50
2019-02-22T08:39:39.783Z,56.40
2019-02-22T08:42:09.496Z,54.80
2019-02-22T08:44:38.704Z,55.20
2019-02-22T08:47:09.294Z,54.50
2019-02-22T08:49:39.224Z,54.40
2019-02-22T08:52:09.592Z,54.60
2019-02-22T08:54:47.096Z,53.90
2019-02-22T08:57:14.261Z,52.40
2019-02-22T08:59:43.919Z,51.20
2019-02-22T09:02:13.697Z,50.10
2019-02-22T09:04:43.969Z,50.10
2019-02-22T09:07:14.344Z,50.50
2019-02-22T09:09:44.386Z,52.00
2019-02-22T09:12:14.644Z,50.30
2019-02-22T09:14:45.044Z,49.30
2019-02-22T09:17:14.687Z,47.80
2019-02-22T09:19:44.876Z,46.50
2019-02-22T09:22:22.294Z,45.30
2019-02-22T09:24:45.729Z,44.50
2019-02-22T09:27:15.429Z,45.00
2019-02-22T09:29:44.431Z,44.40
2019-02-22T09:32:13.206Z,45.90
2019-02-22T09:34:43.173Z,45.60
2019-02-22T09:37:12.777Z,46.10
2019-02-22T09:39:42.699Z,44.90
2019-02-22T09:42:12.388Z,43.90
2019-02-22T09:44:41.631Z,44.00
2019-02-22T09:47:11.722Z,44.10
2019-02-22T09:49:40.586Z,40.70
2019-02-22T09:52:13.134Z,41.80
2019-02-22T09:54:43.350Z,40.90
2019-02-22T09:57:14.066Z,40.80
2019-02-22T09:59:43.306Z,41.50
2019-02-22T10:02:12.676Z,40.80
2019-02-22T10:04:42.290Z,40.50
2019-02-22T10:07:12.599Z,40.90
2019-02-22T10:09:43.134Z,38.60
2019-02-22T10:12:13.216Z,40.50
2019-02-22T10:14:43.658Z,40.90
2019-02-22T10:17:14.084Z,41.60
2019-02-22T10:19:44.521Z,41.30
2019-02-22T10:22:14.908Z,39.30
2019-02-22T10:24:45.526Z,39.10
2019-02-22T10:27:16.741Z,40.50
2019-02-22T10:29:46.050Z,40.10
2019-02-22T10:32:18.252Z,39.00
2019-02-22T10:34:49.289Z,37.70
2019-02-22T10:37:18.686Z,37.40
2019-02-22T10:39:50.234Z,37.00
2019-02-22T10:42:22.385Z,39.00
2019-02-22T10:44:52.890Z,36.60
2019-02-22T10:47:23.222Z,36.80
2019-02-22T10:49:55.707Z,34.90
2019-02-22T10:52:26.116Z,35.10
2019-02-22T10:54:56.566Z,34.80
2019-02-22T10:57:27.314Z,35.10
2019-02-22T10:59:58.057Z,35.30
2019-02-22T11:02:31.216Z,35.80
2019-02-22T11:05:02.894Z,35.80
2019-02-22T11:07:33.251Z,36.10
2019-02-22T11:10:05.764Z,35.10
2019-02-22T11:12:39.246Z,34.70
2019-02-22T11:15:11.612Z,34.70
2019-02-22T11:17:41.745Z,34.90
2019-02-22T11:20:12.967Z,35.10
2019-02-22T11:22:43.807Z,35.10
2019-02-22T11:25:14.000Z,33.90
2019-02-22T11:27:46.216Z,33.90
2019-02-22T11:30:16.536Z,34.80
2019-02-22T11:32:46.991Z,34.90
2019-02-22T11:35:16.827Z,35.30
2019-02-22T11:37:48.285Z,35.60
2019-02-22T11:40:20.107Z,34.20
2019-02-22T11:42:50.146Z,33.70
2019-02-22T11:45:19.189Z,35.20
2019-02-22T11:47:49.434Z,34.00
2019-02-22T11:50:19.708Z,31.80
2019-02-22T11:52:49.024Z,33.20
2019-02-22T11:55:19.942Z,33.10
2019-02-22T11:57:51.487Z,32.70
2019-02-22T12:00:21.788Z,32.60
2019-02-22T12:02:50.867Z,31.50
2019-02-22T12:05:20.348Z,32.60
2019-02-22T12:07:50.731Z,33.40
2019-02-22T12:10:21.597Z,33.00
2019-02-22T12:12:52.300Z,30.70
2019-02-22T12:15:22.041Z,30.30
2019-02-22T12:17:51.300Z,30.00
2019-02-22T12:20:21.350Z,29.50
2019-02-22T12:22:51.213Z,28.90
2019-02-22T12:25:21.011Z,28.90
2019-02-22T12:27:50.652Z,29.10
2019-02-22T12:30:20.431Z,29.50
2019-02-22T12:32:51.293Z,29.00
2019-02-22T12:35:20.447Z,29.10
2019-02-22T12:37:49.589Z,29.00
2019-02-22T12:40:18.834Z,29.00
2019-02-22T12:42:49.010Z,28.50
2019-02-22T12:45:18.596Z,28.50
2019-02-22T12:47:47.578Z,28.20
2019-02-22T12:50:17.132Z,28.40
2019-02-22T12:52:46.101Z,28.70
2019-02-22T12:55:17.106Z,28.10
2019-02-22T12:57:48.266Z,28.70
2019-02-22T13:00:21.913Z,28.30
2019-02-22T13:03:01.491Z,28.00
2019-02-22T13:05:24.855Z,27.90
2019-02-22T13:07:56.165Z,28.20
2019-02-22T13:10:26.410Z,27.80
2019-02-22T13:12:56.224Z,28.60
2019-02-22T13:15:37.869Z,28.80
2019-02-22T13:18:10.523Z,28.10
2019-02-22T13:20:41.166Z,28.50
2019-02-22T13:23:10.490Z,28.60
2019-02-22T13:25:40.562Z,28.60
2019-02-22T13:28:10.973Z,28.40
2019-02-22T13:30:40.251Z,28.60
2019-02-22T13:33:10.277Z,28.20
2019-02-22T13:35:40.216Z,27.40
2019-02-22T13:38:11.699Z,28.10
2019-02-22T13:40:43.102Z,28.70
2019-02-22T13:43:13.518Z,28.70
2019-02-22T13:45:43.156Z,29.00
2019-02-22T13:48:13.559Z,29.10
2019-02-22T13:50:43.521Z,28.80
2019-02-22T13:53:14.407Z,29.00
2019-02-22T13:55:46.009Z,27.80
2019-02-22T13:58:15.583Z,28.40
2019-02-22T14:00:45.366Z,28.40
2019-02-22T14:03:16.219Z,28.00
2019-02-22T14:05:46.050Z,28.90
2019-02-22T14:08:16.197Z,28.40
2019-02-22T14:10:45.995Z,27.40
2019-02-22T14:13:16.038Z,27.40
2019-02-22T14:15:46.672Z,27.10
2019-02-22T14:18:15.640Z,26.60
2019-02-22T14:20:46.780Z,26.50
2019-02-22T14:23:16.414Z,26.70
2019-02-22T14:25:47.166Z,26.60
2019-02-22T14:28:18.195Z,26.70
2019-02-22T14:30:50.852Z,26.10
2019-02-22T14:33:20.713Z,26.30
2019-02-22T14:35:51.284Z,27.20
2019-02-22T14:38:20.450Z,27.30
2019-02-22T14:40:49.220Z,26.60
2019-02-22T14:43:18.722Z,27.10
2019-02-22T14:45:52.214Z,27.90
2019-02-22T14:48:21.176Z,28.20
2019-02-22T14:50:50.794Z,28.40
2019-02-22T14:53:21.204Z,28.70
2019-02-22T14:55:52.011Z,29.00
2019-02-22T14:58:22.859Z,29.10
2019-02-22T15:00:51.735Z,29.30
2019-02-22T15:03:22.576Z,29.80
2019-02-22T15:05:56.207Z,29.60
2019-02-22T15:08:27.336Z,29.70
2019-02-22T15:10:58.332Z,29.60
2019-02-22T15:13:28.249Z,29.90
2019-02-22T15:16:30.084Z,30.30
2019-02-22T15:19:00.171Z,30.20
2019-02-22T15:21:34.355Z,30.20
2019-02-22T15:24:02.531Z,30.10
2019-02-22T15:26:31.544Z,30.30
2019-02-22T15:29:02.314Z,30.80
2019-02-22T15:31:36.053Z,32.00
2019-02-22T15:34:08.329Z,33.30
2019-02-22T15:36:37.685Z,35.10
2019-02-22T15:39:07.139Z,36.80
2019-02-22T15:41:36.974Z,38.10
2019-02-22T15:44:06.570Z,38.90
2019-02-22T15:46:37.196Z,39.70
2019-02-22T15:49:06.432Z,40.30
2019-02-22T15:51:39.672Z,40.30
2019-02-22T15:54:09.968Z,40.90
2019-02-22T15:56:39.667Z,42.30
2019-02-22T15:59:10.853Z,42.60
2019-02-22T16:01:39.524Z,43.60
2019-02-22T16:04:45.185Z,44.20
2019-02-22T16:07:15.396Z,44.70
2019-02-22T16:09:45.946Z,45.50
2019-02-22T16:12:19.564Z,46.30
2019-02-22T16:14:48.988Z,46.70
2019-02-22T16:17:18.979Z,47.90
2019-02-22T16:19:51.479Z,48.30
2019-02-22T16:22:22.258Z,48.80
2019-02-22T16:24:52.774Z,49.40
2019-02-22T16:27:23.374Z,50.00
2019-02-22T16:29:53.707Z,50.80
2019-02-22T16:32:25.150Z,51.30
2019-02-22T16:34:55.488Z,52.20
2019-02-22T16:37:25.976Z,53.50
2019-02-22T16:39:56.672Z,53.00
2019-02-22T16:42:28.331Z,53.80
2019-02-22T16:44:59.079Z,54.10
2019-02-22T16:47:39.595Z,54.40
2019-02-22T16:50:01.617Z,54.50
2019-02-22T16:52:33.670Z,55.20
2019-02-22T16:55:06.286Z,54.60
2019-02-22T16:57:38.796Z,54.80
2019-02-22T17:00:10.888Z,56.00
2019-02-22T17:02:41.817Z,54.80
2019-02-22T17:05:14.941Z,54.80
2019-02-22T17:07:47.344Z,54.60
2019-02-22T17:10:20.480Z,54.40
2019-02-22T17:12:51.307Z,54.70
2019-02-22T17:15:22.791Z,54.90
2019-02-22T17:17:56.469Z,54.80
2019-02-22T17:20:26.537Z,55.00
2019-02-22T17:22:59.182Z,54.60
2019-02-22T17:25:35.527Z,54.80
2019-02-22T17:28:07.359Z,55.50
2019-02-22T17:30:37.795Z,56.40
2019-02-22T17:33:09.619Z,57.30
2019-02-22T17:35:39.903Z,58.60
2019-02-22T17:38:11.773Z,59.10
2019-02-22T17:40:44.604Z,60.20
2019-02-22T17:43:17.487Z,60.30
2019-02-22T17:45:48.091Z,62.00
2019-02-22T17:48:20.927Z,64.20
2019-02-22T17:50:52.746Z,63.10
2019-02-22T17:53:24.803Z,63.10
2019-02-22T17:55:58.456Z,62.90
2019-02-22T17:58:29.215Z,63.20
2019-02-22T18:01:01.116Z,63.00
2019-02-22T18:03:32.416Z,61.10
2019-02-22T18:06:02.284Z,59.70
2019-02-22T18:08:32.579Z,59.10
2019-02-22T18:11:01.813Z,58.80
2019-02-22T18:13:31.446Z,58.50
2019-02-22T18:16:01.458Z,58.10
2019-02-22T18:18:32.239Z,58.20
2019-02-22T18:21:04.065Z,58.50
2019-02-22T18:23:34.058Z,58.50
2019-02-22T18:26:05.261Z,58.80
2019-02-22T18:28:36.887Z,59.00
2019-02-22T18:31:07.278Z,58.30
2019-02-22T18:33:39.740Z,60.70
2019-02-22T18:36:10.077Z,65.40
2019-02-22T18:38:41.160Z,62.80
2019-02-22T18:41:10.617Z,61.60
2019-02-22T18:43:41.122Z,60.80
2019-02-22T18:46:11.033Z,60.80
2019-02-22T18:48:43.712Z,60.40
2019-02-22T18:51:14.881Z,60.80
2019-02-22T18:53:45.856Z,60.80
2019-02-22T18:56:15.217Z,61.10
2019-02-22T18:58:44.387Z,60.90
2019-02-22T19:01:15.595Z,61.00
2019-02-22T19:03:44.919Z,60.90
2019-02-22T19:06:16.654Z,60.20
2019-02-22T19:08:46.851Z,61.30
2019-02-22T19:11:16.987Z,68.80
2019-02-22T19:13:46.079Z,69.20
2019-02-22T19:16:16.124Z,67.00
2019-02-22T19:18:46.019Z,69.40
2019-02-22T19:21:17.974Z,68.20
2019-02-22T19:23:47.539Z,70.00
2019-02-22T19:26:17.357Z,72.70
2019-02-22T19:28:48.047Z,75.50
2019-02-22T19:31:17.858Z,75.30
2019-02-22T19:33:49.931Z,76.10
2019-02-22T19:36:20.269Z,76.60
2019-02-22T19:38:50.902Z,74.50
2019-02-22T19:41:25.028Z,75.80
2019-02-22T19:43:55.814Z,76.60
2019-02-22T19:46:30.780Z,79.00
2019-02-22T19:49:07.254Z,77.00
2019-02-22T19:51:38.439Z,77.30
2019-02-22T19:54:08.926Z,73.70
2019-02-22T19:56:40.085Z,72.10
2019-02-22T19:59:14.721Z,68.90
2019-02-22T20:01:45.580Z,66.50
2019-02-22T20:04:14.624Z,65.40
2019-02-22T20:06:45.741Z,64.80
2019-02-22T20:09:15.974Z,64.70
2019-02-22T20:11:48.688Z,64.30
2019-02-22T20:14:19.498Z,66.00
2019-02-22T20:16:54.146Z,70.40
2019-02-22T20:19:24.063Z,73.20
2019-02-22T20:21:56.269Z,74.80
2019-02-22T20:24:26.755Z,77.40
2019-02-22T20:26:58.594Z,79.40
2019-02-22T20:29:28.119Z,81.00
2019-02-22T20:31:57.522Z,82.70
2019-02-22T20:34:28.662Z,84.00
2019-02-22T20:36:58.697Z,84.50
2019-02-22T20:39:29.976Z,84.90
2019-02-22T20:42:00.233Z,86.30
2019-02-22T20:44:30.078Z,86.10
2019-02-22T20:47:01.598Z,86.80
2019-02-22T20:49:34.731Z,86.70
2019-02-22T20:52:09.481Z,86.80
2019-02-22T20:54:39.774Z,87.00
2019-02-22T20:57:11.827Z,86.80
2019-02-22T20:59:40.905Z,87.40
2019-02-22T21:02:13.376Z,88.00
2019-02-22T21:04:42.519Z,88.10
2019-02-22T21:07:13.194Z,88.60
2019-02-22T21:09:43.064Z,88.10
2019-02-22T21:12:14.161Z,88.30
2019-02-22T21:14:44.520Z,88.20
2019-02-22T21:17:16.412Z,87.60
2019-02-22T21:19:48.655Z,88.80
2019-02-22T21:22:19.219Z,89.00
2019-02-22T21:24:50.036Z,89.80
2019-02-22T21:27:19.673Z,88.60
2019-02-22T21:29:49.257Z,87.10
2019-02-22T21:32:21.726Z,87.90
2019-02-22T21:34:51.513Z,88.30
2019-02-22T21:37:20.944Z,90.20
2019-02-22T21:39:50.783Z,89.60
2019-02-22T21:42:24.138Z,86.40
2019-02-22T21:44:54.604Z,85.60
2019-02-22T21:47:28.641Z,87.50
2019-02-22T21:49:59.945Z,87.90
2019-02-22T21:52:30.707Z,89.30
2019-02-22T21:55:00.397Z,91.10
2019-02-22T21:57:30.978Z,86.20
2019-02-22T22:00:01.584Z,77.50
2019-02-22T22:02:34.272Z,67.70
2019-02-22T22:05:08.819Z,60.90
2019-02-22T22:07:40.627Z,59.90
2019-02-22T22:10:12.139Z,58.50
2019-02-22T22:12:42.794Z,58.70
2019-02-22T22:15:14.385Z,58.30
2019-02-22T22:17:45.952Z,57.10
2019-02-22T22:20:15.942Z,56.70
2019-02-22T22:22:46.354Z,57.10
2019-02-22T22:25:17.471Z,57.10
2019-02-22T22:27:49.223Z,57.40
2019-02-22T22:30:19.131Z,56.80
2019-02-22T22:32:52.519Z,57.40
2019-02-22T22:35:21.201Z,63.10
2019-02-22T22:37:51.656Z,60.40
2019-02-22T22:40:23.288Z,57.70
2019-02-22T22:42:52.407Z,56.50
2019-02-22T22:45:22.702Z,55.50
2019-02-22T22:47:52.544Z,55.40
2019-02-22T22:50:22.586Z,54.80
2019-02-22T22:52:51.620Z,55.00
2019-02-22T22:55:21.935Z,55.00
2019-02-22T22:57:50.771Z,54.60
2019-02-22T23:01:01.655Z,54.90
2019-02-22T23:03:32.099Z,55.10
2019-02-22T23:06:02.645Z,54.80
2019-02-22T23:08:32.001Z,54.60
2019-02-22T23:11:01.266Z,55.60
2019-02-22T23:13:32.360Z,54.90
2019-02-22T23:16:02.906Z,54.40
2019-02-22T23:18:33.800Z,53.90
2019-02-22T23:21:03.843Z,52.90
2019-02-22T23:23:33.079Z,51.60
2019-02-22T23:26:03.451Z,50.40
2019-02-22T23:28:33.976Z,49.80
2019-02-22T23:31:03.429Z,50.10
2019-02-22T23:33:34.695Z,50.20
2019-02-22T23:36:03.868Z,49.70
2019-02-22T23:38:33.113Z,49.50
2019-02-22T23:41:04.126Z,48.40
2019-02-22T23:43:34.628Z,48.70
2019-02-22T23:46:04.246Z,49.70
2019-02-22T23:48:33.666Z,49.40
2019-02-22T23:51:03.787Z,49.50
2019-02-22T23:53:33.514Z,49.40
2019-02-22T23:56:03.294Z,49.60
2019-02-22T23:58:32.996Z,50.10
